Verndale, Minnesota
Current Conditions -  °F | °C
As of 7:33 PM on Tuesday 27 Jan 2015 (Local Time) from KSAZ Reporting Station
Overcast Overcast  
Wind Chill: 21°   Ceiling: 1300
Heat Index: 30°   Visibility: 10mi
Dew Point: 27°   Wind: 10mph
Humidity: 86%   Direction: 150°SSE
Pressure: 30.05"   Gusts: NA
Location:  46.4°N, 95.01°W
Report Text: KSAZ 280133Z AUTO 15009KT 10SM OVC013 M01/M03 A3005 RMK AO2
Loading
Personal Weather Stations






























Interactive Weather Map New forecast layout! Learn more

10-Day Weather Forecast

Advertisements
Track Severe Weather on mobile